Hlavní strana
METAR-TAF:

METAR-TAF

Letiště :

Wapakoneta, Ohio, Spojené státy americké

zeměpisná šířka: 40-29-37N, zeměpisná délka: 084-17-53W, výška: 278 m

Aktuální stav počasí

Zpráva byla vytvořena před 29 minutami, v 09:59 UTC
Západní vítr 17 kt s nárazy do 22 kt
Teplota -1°C
Vlhkost vzduchu 86%
Tlak 1011 hPa
Viditelnost: 16.1 km
Zataženo ve výšce 1100 ft

METAR: KAXV 100959Z AUTO 26017G22KT 10SM OVC011 M01/M03 A2986 RMK AO2

Čas: 05:28 (10:28 UTC)


TAF: chybějící

Stav a předpovědi počasí z více než 4 000 letišť (zprávy METAR a TAF).

Červené a žluté tečky na mapě představují dostupné meteorologické stanice.

Když kurzor umístíte na tečku, zobrazí se název stanice.

Pak kliknutím zobrazíte stav a předpověď počasí.

Chcete-li změnit mapu, kliknutím na zelené tlačítko se znaménkem +mapu přiblížíte, kliknutím na zelené tlačítko se znaménkem – mapu oddálíte a kliknutím na zelené šipky přejdete na sousední mapy.


METAR-TAF: